createdAt,value
2023-03-26T00:00:02.530Z,87.8
2023-03-26T00:15:03.146Z,88.1
2023-03-26T00:30:02.413Z,88.9
2023-03-26T00:45:02.824Z,89.3
2023-03-26T01:00:03.397Z,89.1
2023-03-26T01:15:02.715Z,88.7
2023-03-26T01:30:03.214Z,89.1
2023-03-26T01:45:02.617Z,89.3
2023-03-26T02:00:03.212Z,89.0
2023-03-26T02:15:02.455Z,89.6
2023-03-26T02:30:02.894Z,90.3
2023-03-26T02:45:02.331Z,91.6
2023-03-26T03:00:02.784Z,92.2
2023-03-26T03:15:03.251Z,92.8
2023-03-26T03:30:02.671Z,93.5
2023-03-26T03:45:03.264Z,93.5
2023-03-26T04:00:03.509Z,93.4
2023-03-26T04:30:02.448Z,93.8
2023-03-26T04:45:02.866Z,94.5
2023-03-26T05:00:02.333Z,94.6
2023-03-26T05:15:02.758Z,94.6
2023-03-26T05:30:03.259Z,94.6
2023-03-26T05:45:02.597Z,94.6
2023-03-26T06:00:03.248Z,94.7
2023-03-26T06:15:02.533Z,94.7
2023-03-26T06:30:02.980Z,94.7
2023-03-26T06:45:02.399Z,94.8
2023-03-26T07:00:02.815Z,94.8
2023-03-26T07:15:03.301Z,94.6
2023-03-26T07:30:02.724Z,94.3
2023-03-26T07:45:03.294Z,93.4
2023-03-26T08:00:02.578Z,92.3
2023-03-26T08:15:03.041Z,90.8
2023-03-26T08:30:02.451Z,89.4
2023-03-26T08:45:02.904Z,88.4
2023-03-26T09:00:02.946Z,86.2
2023-03-26T09:15:02.753Z,81.0
2023-03-26T09:30:02.301Z,79.2
2023-03-26T09:45:02.665Z,78.0
2023-03-26T10:00:03.325Z,78.1
2023-03-26T10:15:02.539Z,78.2
2023-03-26T10:30:02.951Z,78.2
2023-03-26T10:45:02.394Z,77.8
2023-03-26T11:00:02.838Z,79.5
2023-03-26T11:15:02.327Z,78.9
2023-03-26T11:30:02.688Z,78.1
2023-03-26T11:45:03.340Z,76.1
2023-03-26T12:00:02.577Z,74.8
2023-03-26T12:15:03.008Z,75.5
2023-03-26T12:30:02.469Z,75.9
2023-03-26T12:45:02.861Z,76.9
2023-03-26T13:00:02.431Z,77.3
2023-03-26T13:15:02.731Z,76.6
2023-03-26T13:30:03.364Z,75.4
2023-03-26T13:45:04.682Z,76.6
2023-03-26T14:00:02.096Z,75.5
2023-03-26T14:15:02.498Z,74.8
2023-03-26T14:30:02.950Z,73.1
2023-03-26T14:45:02.363Z,71.8
2023-03-26T15:00:02.814Z,70.7
2023-03-26T15:15:03.370Z,69.4
2023-03-26T15:30:02.683Z,68.1
2023-03-26T15:45:03.115Z,68.6
2023-03-26T16:00:02.574Z,68.2
2023-03-26T16:15:03.021Z,64.9
2023-03-26T16:30:02.470Z,62.9
2023-03-26T16:45:02.892Z,63.8
2023-03-26T17:00:06.616Z,63.2
2023-03-26T17:15:02.744Z,63.9
2023-03-26T17:30:02.398Z,63.1
2023-03-26T17:45:02.633Z,62.0
2023-03-26T18:00:03.073Z,63.6
2023-03-26T18:15:02.494Z,63.2
2023-03-26T18:30:03.389Z,64.3
2023-03-26T19:00:02.833Z,67.6
2023-03-26T19:15:02.400Z,68.3
2023-03-26T19:30:02.699Z,67.7
2023-03-26T19:45:03.154Z,66.9
2023-03-26T20:00:02.559Z,67.4
2023-03-26T20:15:03.016Z,69.8
2023-03-26T20:30:02.468Z,71.4
2023-03-26T20:45:02.909Z,71.7
2023-03-26T21:00:02.433Z,72.2
2023-03-26T21:15:09.886Z,72.9
2023-03-26T21:30:03.436Z,74.2
2023-03-26T21:45:02.652Z,75.1
2023-03-26T22:00:03.083Z,75.8
2023-03-26T22:30:02.982Z,74.9
2023-03-26T22:45:02.448Z,75.0
2023-03-26T23:00:02.834Z,75.6
2023-03-26T23:15:03.468Z,76.1
2023-03-26T23:30:02.724Z,76.5
2023-03-26T23:45:03.176Z,77.3
